sensor_id;sensor_type;location;lat;lon;timestamp;P1;durP1;ratioP1;P2;durP2;ratioP2
22254;SDS011;11296;42.684;23.322;2022-08-01T00:00:47;3.33;;;3.03;;
22254;SDS011;11296;42.684;23.322;2022-08-01T00:03:18;3.70;;;3.40;;
22254;SDS011;11296;42.684;23.322;2022-08-01T00:05:44;3.83;;;3.13;;
22254;SDS011;11296;42.684;23.322;2022-08-01T00:08:20;3.40;;;3.10;;
22254;SDS011;11296;42.684;23.322;2022-08-01T00:11:02;3.47;;;3.00;;
22254;SDS011;11296;42.684;23.322;2022-08-01T00:13:51;2.80;;;2.60;;
22254;SDS011;11296;42.684;23.322;2022-08-01T00:16:18;3.57;;;2.97;;
22254;SDS011;11296;42.684;23.322;2022-08-01T00:19:33;3.03;;;2.83;;
22254;SDS011;11296;42.684;23.322;2022-08-01T00:21:59;2.90;;;2.70;;
22254;SDS011;11296;42.684;23.322;2022-08-01T00:24:25;4.53;;;2.80;;
22254;SDS011;11296;42.684;23.322;2022-08-01T00:26:51;5.40;;;2.90;;
22254;SDS011;11296;42.684;23.322;2022-08-01T00:29:16;9.40;;;3.57;;
22254;SDS011;11296;42.684;23.322;2022-08-01T00:31:42;3.93;;;3.63;;
22254;SDS011;11296;42.684;23.322;2022-08-01T00:34:08;4.60;;;4.20;;
22254;SDS011;11296;42.684;23.322;2022-08-01T00:36:33;5.97;;;5.47;;
22254;SDS011;11296;42.684;23.322;2022-08-01T00:38:59;6.93;;;6.23;;
22254;SDS011;11296;42.684;23.322;2022-08-01T00:41:25;6.73;;;6.00;;
22254;SDS011;11296;42.684;23.322;2022-08-01T00:43:50;6.73;;;6.13;;
22254;SDS011;11296;42.684;23.322;2022-08-01T00:46:16;7.40;;;6.70;;
22254;SDS011;11296;42.684;23.322;2022-08-01T00:48:45;7.50;;;6.80;;
22254;SDS011;11296;42.684;23.322;2022-08-01T00:51:11;6.93;;;6.33;;
22254;SDS011;11296;42.684;23.322;2022-08-01T00:53:38;6.57;;;6.07;;
22254;SDS011;11296;42.684;23.322;2022-08-01T00:56:04;6.60;;;6.10;;
22254;SDS011;11296;42.684;23.322;2022-08-01T00:58:31;6.90;;;6.20;;
22254;SDS011;11296;42.684;23.322;2022-08-01T01:00:59;6.70;;;5.97;;
22254;SDS011;11296;42.684;23.322;2022-08-01T01:03:25;6.73;;;6.23;;
22254;SDS011;11296;42.684;23.322;2022-08-01T01:06:36;6.13;;;5.63;;
22254;SDS011;11296;42.684;23.322;2022-08-01T01:09:06;6.10;;;5.70;;
22254;SDS011;11296;42.684;23.322;2022-08-01T01:14:39;6.30;;;5.80;;
22254;SDS011;11296;42.684;23.322;2022-08-01T01:17:15;6.10;;;5.60;;
22254;SDS011;11296;42.684;23.322;2022-08-01T01:19:45;6.17;;;5.57;;
22254;SDS011;11296;42.684;23.322;2022-08-01T01:27:39;5.30;;;4.90;;
22254;SDS011;11296;42.684;23.322;2022-08-01T01:30:35;4.53;;;4.10;;
22254;SDS011;11296;42.684;23.322;2022-08-01T01:33:06;3.90;;;3.60;;
22254;SDS011;11296;42.684;23.322;2022-08-01T01:35:36;5.67;;;3.73;;
22254;SDS011;11296;42.684;23.322;2022-08-01T01:38:10;3.37;;;3.07;;
22254;SDS011;11296;42.684;23.322;2022-08-01T01:40:45;4.70;;;3.50;;
22254;SDS011;11296;42.684;23.322;2022-08-01T01:43:20;4.07;;;3.20;;
22254;SDS011;11296;42.684;23.322;2022-08-01T01:45:55;6.47;;;3.70;;
22254;SDS011;11296;42.684;23.322;2022-08-01T01:48:25;4.43;;;3.43;;
22254;SDS011;11296;42.684;23.322;2022-08-01T01:50:53;3.73;;;2.90;;
22254;SDS011;11296;42.684;23.322;2022-08-01T01:53:21;4.10;;;2.57;;
22254;SDS011;11296;42.684;23.322;2022-08-01T01:55:51;3.47;;;2.60;;
22254;SDS011;11296;42.684;23.322;2022-08-01T01:58:19;3.30;;;2.33;;
22254;SDS011;11296;42.684;23.322;2022-08-01T02:00:47;2.50;;;2.30;;
22254;SDS011;11296;42.684;23.322;2022-08-01T02:03:14;2.23;;;2.03;;
22254;SDS011;11296;42.684;23.322;2022-08-01T02:05:42;3.37;;;2.40;;
22254;SDS011;11296;42.684;23.322;2022-08-01T02:08:09;4.97;;;2.10;;
22254;SDS011;11296;42.684;23.322;2022-08-01T02:10:38;2.37;;;1.90;;
22254;SDS011;11296;42.684;23.322;2022-08-01T02:13:05;4.23;;;2.17;;
22254;SDS011;11296;42.684;23.322;2022-08-01T02:15:32;2.60;;;2.23;;
22254;SDS011;11296;42.684;23.322;2022-08-01T02:18:03;3.17;;;2.10;;
22254;SDS011;11296;42.684;23.322;2022-08-01T02:20:32;2.43;;;2.00;;
22254;SDS011;11296;42.684;23.322;2022-08-01T02:23:10;2.57;;;1.90;;
22254;SDS011;11296;42.684;23.322;2022-08-01T02:25:48;2.20;;;2.00;;
22254;SDS011;11296;42.684;23.322;2022-08-01T02:28:24;4.00;;;2.20;;
22254;SDS011;11296;42.684;23.322;2022-08-01T02:31:02;3.37;;;2.10;;
22254;SDS011;11296;42.684;23.322;2022-08-01T02:33:35;3.90;;;2.10;;
22254;SDS011;11296;42.684;23.322;2022-08-01T02:36:03;3.20;;;2.13;;
22254;SDS011;11296;42.684;23.322;2022-08-01T02:38:32;2.30;;;2.10;;
22254;SDS011;11296;42.684;23.322;2022-08-01T02:41:03;3.43;;;2.10;;
22254;SDS011;11296;42.684;23.322;2022-08-01T02:43:33;2.40;;;2.20;;
22254;SDS011;11296;42.684;23.322;2022-08-01T02:46:02;3.50;;;2.40;;
22254;SDS011;11296;42.684;23.322;2022-08-01T02:48:32;4.03;;;2.50;;
22254;SDS011;11296;42.684;23.322;2022-08-01T02:51:01;4.73;;;2.40;;
22254;SDS011;11296;42.684;23.322;2022-08-01T02:53:30;4.87;;;2.67;;
22254;SDS011;11296;42.684;23.322;2022-08-01T02:56:02;3.27;;;2.70;;
22254;SDS011;11296;42.684;23.322;2022-08-01T02:58:30;4.90;;;3.30;;
22254;SDS011;11296;42.684;23.322;2022-08-01T03:00:57;6.27;;;3.63;;
22254;SDS011;11296;42.684;23.322;2022-08-01T03:03:24;4.10;;;3.57;;
22254;SDS011;11296;42.684;23.322;2022-08-01T03:05:51;4.77;;;3.30;;
22254;SDS011;11296;42.684;23.322;2022-08-01T03:08:17;4.00;;;3.60;;
22254;SDS011;11296;42.684;23.322;2022-08-01T03:10:45;3.90;;;3.53;;
22254;SDS011;11296;42.684;23.322;2022-08-01T03:13:12;4.27;;;3.53;;
22254;SDS011;11296;42.684;23.322;2022-08-01T03:15:41;5.00;;;3.47;;
22254;SDS011;11296;42.684;23.322;2022-08-01T03:18:09;6.47;;;3.80;;
22254;SDS011;11296;42.684;23.322;2022-08-01T03:20:36;4.10;;;3.70;;
22254;SDS011;11296;42.684;23.322;2022-08-01T03:23:03;5.07;;;4.17;;
22254;SDS011;11296;42.684;23.322;2022-08-01T03:25:36;4.27;;;3.90;;
22254;SDS011;11296;42.684;23.322;2022-08-01T03:28:05;4.90;;;4.50;;
22254;SDS011;11296;42.684;23.322;2022-08-01T03:30:32;4.77;;;4.00;;
22254;SDS011;11296;42.684;23.322;2022-08-01T03:32:58;4.37;;;3.90;;
22254;SDS011;11296;42.684;23.322;2022-08-01T03:35:29;4.90;;;4.00;;
22254;SDS011;11296;42.684;23.322;2022-08-01T03:38:01;6.83;;;3.93;;
22254;SDS011;11296;42.684;23.322;2022-08-01T03:40:43;4.73;;;3.87;;
22254;SDS011;11296;42.684;23.322;2022-08-01T03:47:05;8.53;;;4.33;;
22254;SDS011;11296;42.684;23.322;2022-08-01T03:49:35;5.57;;;3.90;;
22254;SDS011;11296;42.684;23.322;2022-08-01T03:52:07;5.77;;;4.20;;
22254;SDS011;11296;42.684;23.322;2022-08-01T03:54:35;7.00;;;4.37;;
22254;SDS011;11296;42.684;23.322;2022-08-01T03:57:04;7.20;;;5.57;;
22254;SDS011;11296;42.684;23.322;2022-08-01T03:59:35;7.73;;;5.13;;
22254;SDS011;11296;42.684;23.322;2022-08-01T04:02:03;8.40;;;4.50;;
22254;SDS011;11296;42.684;23.322;2022-08-01T04:04:29;4.70;;;4.10;;
22254;SDS011;11296;42.684;23.322;2022-08-01T04:06:56;5.57;;;4.50;;
22254;SDS011;11296;42.684;23.322;2022-08-01T04:09:22;6.20;;;4.77;;
22254;SDS011;11296;42.684;23.322;2022-08-01T04:11:48;4.83;;;4.40;;
22254;SDS011;11296;42.684;23.322;2022-08-01T04:14:14;7.60;;;4.93;;
22254;SDS011;11296;42.684;23.322;2022-08-01T04:16:40;5.80;;;5.27;;
22254;SDS011;11296;42.684;23.322;2022-08-01T04:19:06;8.53;;;5.47;;
22254;SDS011;11296;42.684;23.322;2022-08-01T04:21:33;6.20;;;5.30;;
22254;SDS011;11296;42.684;23.322;2022-08-01T04:24:10;6.10;;;5.30;;
22254;SDS011;11296;42.684;23.322;2022-08-01T04:26:41;6.60;;;5.73;;
22254;SDS011;11296;42.684;23.322;2022-08-01T04:29:10;17.60;;;15.07;;
22254;SDS011;11296;42.684;23.322;2022-08-01T04:31:41;9.63;;;7.03;;
22254;SDS011;11296;42.684;23.322;2022-08-01T04:34:09;7.87;;;6.50;;
22254;SDS011;11296;42.684;23.322;2022-08-01T04:36:39;7.00;;;6.30;;
22254;SDS011;11296;42.684;23.322;2022-08-01T04:39:09;8.10;;;6.13;;
22254;SDS011;11296;42.684;23.322;2022-08-01T04:41:37;6.97;;;6.20;;
22254;SDS011;11296;42.684;23.322;2022-08-01T04:44:04;9.63;;;6.33;;
22254;SDS011;11296;42.684;23.322;2022-08-01T04:46:30;10.33;;;6.63;;
22254;SDS011;11296;42.684;23.322;2022-08-01T04:48:58;8.17;;;6.37;;
22254;SDS011;11296;42.684;23.322;2022-08-01T04:51:25;9.07;;;6.83;;
22254;SDS011;11296;42.684;23.322;2022-08-01T04:53:51;9.87;;;7.50;;
22254;SDS011;11296;42.684;23.322;2022-08-01T04:56:19;11.30;;;7.97;;
22254;SDS011;11296;42.684;23.322;2022-08-01T04:58:46;13.13;;;7.20;;
22254;SDS011;11296;42.684;23.322;2022-08-01T05:01:33;11.33;;;7.60;;
22254;SDS011;11296;42.684;23.322;2022-08-01T05:03:59;12.33;;;7.83;;
22254;SDS011;11296;42.684;23.322;2022-08-01T05:06:26;10.93;;;7.70;;
22254;SDS011;11296;42.684;23.322;2022-08-01T05:08:52;10.73;;;7.63;;
22254;SDS011;11296;42.684;23.322;2022-08-01T05:11:18;10.63;;;6.80;;
22254;SDS011;11296;42.684;23.322;2022-08-01T05:13:43;11.10;;;6.50;;
22254;SDS011;11296;42.684;23.322;2022-08-01T05:16:10;9.23;;;6.70;;
22254;SDS011;11296;42.684;23.322;2022-08-01T05:18:40;8.83;;;7.43;;
22254;SDS011;11296;42.684;23.322;2022-08-01T05:21:06;7.17;;;6.13;;
22254;SDS011;11296;42.684;23.322;2022-08-01T05:23:32;8.30;;;5.97;;
22254;SDS011;11296;42.684;23.322;2022-08-01T05:26:00;10.10;;;6.23;;
22254;SDS011;11296;42.684;23.322;2022-08-01T05:28:26;10.87;;;5.77;;
22254;SDS011;11296;42.684;23.322;2022-08-01T05:30:52;10.60;;;5.73;;
22254;SDS011;11296;42.684;23.322;2022-08-01T05:33:19;8.77;;;5.53;;
22254;SDS011;11296;42.684;23.322;2022-08-01T05:35:46;6.30;;;5.20;;
22254;SDS011;11296;42.684;23.322;2022-08-01T05:38:12;7.43;;;5.33;;
22254;SDS011;11296;42.684;23.322;2022-08-01T05:40:38;7.10;;;5.70;;
22254;SDS011;11296;42.684;23.322;2022-08-01T05:43:03;8.10;;;5.30;;
22254;SDS011;11296;42.684;23.322;2022-08-01T05:45:30;6.43;;;5.30;;
22254;SDS011;11296;42.684;23.322;2022-08-01T05:48:03;10.50;;;5.63;;
22254;SDS011;11296;42.684;23.322;2022-08-01T05:50:32;7.33;;;5.43;;
22254;SDS011;11296;42.684;23.322;2022-08-01T05:52:58;6.23;;;4.80;;
22254;SDS011;11296;42.684;23.322;2022-08-01T05:55:27;6.63;;;4.90;;
22254;SDS011;11296;42.684;23.322;2022-08-01T05:57:54;5.07;;;4.33;;
22254;SDS011;11296;42.684;23.322;2022-08-01T06:00:20;6.80;;;4.30;;
22254;SDS011;11296;42.684;23.322;2022-08-01T06:02:49;4.10;;;3.70;;
22254;SDS011;11296;42.684;23.322;2022-08-01T06:05:23;3.93;;;3.27;;
22254;SDS011;11296;42.684;23.322;2022-08-01T06:07:52;8.70;;;4.07;;
22254;SDS011;11296;42.684;23.322;2022-08-01T06:10:32;5.03;;;3.70;;
22254;SDS011;11296;42.684;23.322;2022-08-01T06:12:58;4.33;;;3.60;;
22254;SDS011;11296;42.684;23.322;2022-08-01T06:15:33;6.57;;;3.50;;
22254;SDS011;11296;42.684;23.322;2022-08-01T06:17:58;3.53;;;2.57;;
22254;SDS011;11296;42.684;23.322;2022-08-01T06:20:33;4.33;;;2.53;;
22254;SDS011;11296;42.684;23.322;2022-08-01T06:22:59;3.10;;;2.67;;
22254;SDS011;11296;42.684;23.322;2022-08-01T06:25:27;3.87;;;2.77;;
22254;SDS011;11296;42.684;23.322;2022-08-01T06:27:58;3.23;;;2.33;;
22254;SDS011;11296;42.684;23.322;2022-08-01T06:30:36;3.97;;;2.50;;
22254;SDS011;11296;42.684;23.322;2022-08-01T06:33:14;2.90;;;2.23;;
22254;SDS011;11296;42.684;23.322;2022-08-01T06:35:55;3.27;;;2.33;;
22254;SDS011;11296;42.684;23.322;2022-08-01T06:38:21;6.03;;;2.70;;
22254;SDS011;11296;42.684;23.322;2022-08-01T06:40:55;2.80;;;2.60;;
22254;SDS011;11296;42.684;23.322;2022-08-01T06:43:27;3.10;;;2.23;;
22254;SDS011;11296;42.684;23.322;2022-08-01T06:45:56;3.80;;;2.40;;
22254;SDS011;11296;42.684;23.322;2022-08-01T06:48:22;5.50;;;2.60;;
22254;SDS011;11296;42.684;23.322;2022-08-01T06:50:48;3.67;;;2.70;;
22254;SDS011;11296;42.684;23.322;2022-08-01T06:53:14;2.60;;;2.40;;
22254;SDS011;11296;42.684;23.322;2022-08-01T06:55:45;3.67;;;2.60;;
22254;SDS011;11296;42.684;23.322;2022-08-01T06:58:13;4.03;;;2.37;;
22254;SDS011;11296;42.684;23.322;2022-08-01T07:00:39;2.90;;;2.60;;
22254;SDS011;11296;42.684;23.322;2022-08-01T07:03:09;3.57;;;2.77;;
22254;SDS011;11296;42.684;23.322;2022-08-01T07:05:40;4.53;;;2.77;;
22254;SDS011;11296;42.684;23.322;2022-08-01T07:08:06;4.53;;;2.80;;
22254;SDS011;11296;42.684;23.322;2022-08-01T07:10:32;3.97;;;3.00;;
22254;SDS011;11296;42.684;23.322;2022-08-01T07:13:01;3.27;;;3.00;;
22254;SDS011;11296;42.684;23.322;2022-08-01T07:15:30;3.53;;;3.00;;
22254;SDS011;11296;42.684;23.322;2022-08-01T07:17:58;3.60;;;3.13;;
22254;SDS011;11296;42.684;23.322;2022-08-01T07:20:26;3.70;;;2.90;;
22254;SDS011;11296;42.684;23.322;2022-08-01T07:22:55;5.77;;;2.90;;
22254;SDS011;11296;42.684;23.322;2022-08-01T07:25:29;2.40;;;2.03;;
22254;SDS011;11296;42.684;23.322;2022-08-01T07:27:55;4.13;;;2.83;;
22254;SDS011;11296;42.684;23.322;2022-08-01T07:30:23;3.87;;;2.87;;
22254;SDS011;11296;42.684;23.322;2022-08-01T07:32:49;4.00;;;2.93;;
22254;SDS011;11296;42.684;23.322;2022-08-01T07:35:14;4.03;;;2.70;;
22254;SDS011;11296;42.684;23.322;2022-08-01T07:37:56;4.00;;;2.80;;
22254;SDS011;11296;42.684;23.322;2022-08-01T07:40:28;3.40;;;2.90;;
22254;SDS011;11296;42.684;23.322;2022-08-01T07:42:54;3.87;;;2.70;;
22254;SDS011;11296;42.684;23.322;2022-08-01T07:45:30;3.30;;;3.00;;
22254;SDS011;11296;42.684;23.322;2022-08-01T07:48:05;3.70;;;2.70;;
22254;SDS011;11296;42.684;23.322;2022-08-01T07:50:31;3.53;;;3.23;;
22254;SDS011;11296;42.684;23.322;2022-08-01T07:52:58;5.67;;;3.23;;
22254;SDS011;11296;42.684;23.322;2022-08-01T07:55:35;3.53;;;3.23;;
22254;SDS011;11296;42.684;23.322;2022-08-01T07:58:01;3.10;;;2.80;;
22254;SDS011;11296;42.684;23.322;2022-08-01T08:00:27;5.67;;;2.90;;
22254;SDS011;11296;42.684;23.322;2022-08-01T08:02:53;3.70;;;2.80;;
22254;SDS011;11296;42.684;23.322;2022-08-01T08:05:19;2.90;;;2.70;;
22254;SDS011;11296;42.684;23.322;2022-08-01T08:07:48;5.23;;;3.10;;
22254;SDS011;11296;42.684;23.322;2022-08-01T08:10:19;3.33;;;3.10;;
22254;SDS011;11296;42.684;23.322;2022-08-01T08:13:06;3.13;;;2.83;;
22254;SDS011;11296;42.684;23.322;2022-08-01T08:15:34;3.20;;;2.97;;
22254;SDS011;11296;42.684;23.322;2022-08-01T08:18:12;3.57;;;3.07;;
22254;SDS011;11296;42.684;23.322;2022-08-01T08:20:46;2.80;;;2.50;;
22254;SDS011;11296;42.684;23.322;2022-08-01T08:23:15;3.30;;;3.00;;
22254;SDS011;11296;42.684;23.322;2022-08-01T08:25:59;3.10;;;2.80;;
22254;SDS011;11296;42.684;23.322;2022-08-01T08:28:25;3.50;;;2.93;;
22254;SDS011;11296;42.684;23.322;2022-08-01T08:30:53;4.47;;;3.00;;
22254;SDS011;11296;42.684;23.322;2022-08-01T08:33:22;3.00;;;2.77;;
22254;SDS011;11296;42.684;23.322;2022-08-01T08:35:48;5.07;;;3.10;;
22254;SDS011;11296;42.684;23.322;2022-08-01T08:38:29;3.43;;;2.33;;
22254;SDS011;11296;42.684;23.322;2022-08-01T08:40:55;3.67;;;3.00;;
22254;SDS011;11296;42.684;23.322;2022-08-01T08:43:22;5.53;;;2.90;;
22254;SDS011;11296;42.684;23.322;2022-08-01T08:45:49;3.43;;;2.80;;
22254;SDS011;11296;42.684;23.322;2022-08-01T08:48:18;5.00;;;3.10;;
22254;SDS011;11296;42.684;23.322;2022-08-01T08:50:46;5.07;;;2.77;;
22254;SDS011;11296;42.684;23.322;2022-08-01T08:53:13;3.73;;;2.77;;
22254;SDS011;11296;42.684;23.322;2022-08-01T08:55:43;3.03;;;2.73;;
22254;SDS011;11296;42.684;23.322;2022-08-01T08:58:13;4.93;;;3.10;;
22254;SDS011;11296;42.684;23.322;2022-08-01T09:00:43;3.57;;;2.60;;
22254;SDS011;11296;42.684;23.322;2022-08-01T09:03:09;4.40;;;2.87;;
22254;SDS011;11296;42.684;23.322;2022-08-01T09:05:38;3.70;;;3.10;;
22254;SDS011;11296;42.684;23.322;2022-08-01T09:08:06;3.37;;;2.97;;
22254;SDS011;11296;42.684;23.322;2022-08-01T09:10:33;5.93;;;3.00;;
22254;SDS011;11296;42.684;23.322;2022-08-01T09:13:04;10.00;;;3.77;;
22254;SDS011;11296;42.684;23.322;2022-08-01T09:15:45;3.73;;;2.97;;
22254;SDS011;11296;42.684;23.322;2022-08-01T09:21:14;3.70;;;2.20;;
22254;SDS011;11296;42.684;23.322;2022-08-01T09:23:53;2.47;;;2.30;;
22254;SDS011;11296;42.684;23.322;2022-08-01T09:26:43;3.00;;;2.30;;
22254;SDS011;11296;42.684;23.322;2022-08-01T09:29:16;2.60;;;2.40;;
22254;SDS011;11296;42.684;23.322;2022-08-01T09:31:51;4.57;;;2.40;;
22254;SDS011;11296;42.684;23.322;2022-08-01T09:34:24;2.87;;;2.20;;
22254;SDS011;11296;42.684;23.322;2022-08-01T09:36:59;4.83;;;2.90;;
22254;SDS011;11296;42.684;23.322;2022-08-01T09:39:27;4.75;;;2.80;;
22254;SDS011;11296;42.684;23.322;2022-08-01T09:41:58;5.07;;;4.33;;
22254;SDS011;11296;42.684;23.322;2022-08-01T09:47:16;3.10;;;2.50;;
22254;SDS011;11296;42.684;23.322;2022-08-01T09:49:43;2.73;;;2.53;;
22254;SDS011;11296;42.684;23.322;2022-08-01T09:52:17;4.97;;;2.40;;
22254;SDS011;11296;42.684;23.322;2022-08-01T09:55:05;3.30;;;3.00;;
22254;SDS011;11296;42.684;23.322;2022-08-01T09:57:54;2.90;;;2.60;;
22254;SDS011;11296;42.684;23.322;2022-08-01T10:00:24;3.03;;;2.72;;
22254;SDS011;11296;42.684;23.322;2022-08-01T10:06:18;3.17;;;2.83;;
22254;SDS011;11296;42.684;23.322;2022-08-01T10:08:49;3.15;;;2.85;;
22254;SDS011;11296;42.684;23.322;2022-08-01T10:11:18;3.17;;;2.67;;
22254;SDS011;11296;42.684;23.322;2022-08-01T10:13:48;3.28;;;2.97;;
22254;SDS011;11296;42.684;23.322;2022-08-01T10:16:26;2.95;;;2.75;;
22254;SDS011;11296;42.684;23.322;2022-08-01T10:18:53;3.42;;;3.13;;
22254;SDS011;11296;42.684;23.322;2022-08-01T10:21:26;3.83;;;3.42;;
22254;SDS011;11296;42.684;23.322;2022-08-01T10:23:53;2.80;;;2.60;;
22254;SDS011;11296;42.684;23.322;2022-08-01T10:26:20;3.30;;;2.63;;
22254;SDS011;11296;42.684;23.322;2022-08-01T10:28:53;3.33;;;2.90;;
22254;SDS011;11296;42.684;23.322;2022-08-01T10:31:25;3.58;;;3.28;;
22254;SDS011;11296;42.684;23.322;2022-08-01T10:34:02;4.45;;;2.80;;
22254;SDS011;11296;42.684;23.322;2022-08-01T10:36:29;2.78;;;2.58;;
22254;SDS011;11296;42.684;23.322;2022-08-01T10:39:01;3.80;;;2.80;;
22254;SDS011;11296;42.684;23.322;2022-08-01T10:41:27;3.20;;;2.88;;
22254;SDS011;11296;42.684;23.322;2022-08-01T10:44:00;4.93;;;2.80;;
22254;SDS011;11296;42.684;23.322;2022-08-01T10:46:28;3.13;;;2.70;;
22254;SDS011;11296;42.684;23.322;2022-08-01T10:49:00;2.80;;;2.53;;
22254;SDS011;11296;42.684;23.322;2022-08-01T10:51:33;2.65;;;2.17;;
22254;SDS011;11296;42.684;23.322;2022-08-01T10:54:06;2.35;;;2.15;;
22254;SDS011;11296;42.684;23.322;2022-08-01T10:56:48;6.45;;;2.40;;
22254;SDS011;11296;42.684;23.322;2022-08-01T10:59:22;3.22;;;2.25;;
22254;SDS011;11296;42.684;23.322;2022-08-01T11:02:00;4.55;;;2.40;;
22254;SDS011;11296;42.684;23.322;2022-08-01T11:07:06;3.78;;;2.60;;
22254;SDS011;11296;42.684;23.322;2022-08-01T11:09:41;3.53;;;2.65;;
22254;SDS011;11296;42.684;23.322;2022-08-01T11:17:39;3.10;;;2.60;;
22254;SDS011;11296;42.684;23.322;2022-08-01T11:30:42;4.15;;;2.83;;
22254;SDS011;11296;42.684;23.322;2022-08-01T11:33:16;3.33;;;3.03;;
22254;SDS011;11296;42.684;23.322;2022-08-01T11:38:42;4.28;;;2.88;;
22254;SDS011;11296;42.684;23.322;2022-08-01T11:41:22;3.17;;;2.78;;
22254;SDS011;11296;42.684;23.322;2022-08-01T11:43:58;2.88;;;2.65;;
22254;SDS011;11296;42.684;23.322;2022-08-01T11:49:31;3.45;;;2.17;;
22254;SDS011;11296;42.684;23.322;2022-08-01T11:52:30;2.95;;;2.40;;
22254;SDS011;11296;42.684;23.322;2022-08-01T11:57:28;2.95;;;2.75;;
22254;SDS011;11296;42.684;23.322;2022-08-01T12:00:03;2.70;;;2.50;;
22254;SDS011;11296;42.684;23.322;2022-08-01T12:02:39;4.38;;;2.63;;
22254;SDS011;11296;42.684;23.322;2022-08-01T12:05:07;4.63;;;3.15;;
22254;SDS011;11296;42.684;23.322;2022-08-01T12:07:52;2.80;;;2.60;;
22254;SDS011;11296;42.684;23.322;2022-08-01T12:10:22;2.90;;;2.65;;
22254;SDS011;11296;42.684;23.322;2022-08-01T12:12:51;3.45;;;2.90;;
22254;SDS011;11296;42.684;23.322;2022-08-01T12:15:20;3.38;;;3.17;;
22254;SDS011;11296;42.684;23.322;2022-08-01T12:17:49;3.38;;;3.10;;
22254;SDS011;11296;42.684;23.322;2022-08-01T12:20:19;4.75;;;2.92;;
22254;SDS011;11296;42.684;23.322;2022-08-01T12:22:52;3.13;;;2.90;;
22254;SDS011;11296;42.684;23.322;2022-08-01T12:25:19;3.30;;;3.10;;
22254;SDS011;11296;42.684;23.322;2022-08-01T12:28:13;2.90;;;2.70;;
22254;SDS011;11296;42.684;23.322;2022-08-01T12:30:39;3.65;;;3.00;;
22254;SDS011;11296;42.684;23.322;2022-08-01T12:33:06;3.28;;;2.97;;
22254;SDS011;11296;42.684;23.322;2022-08-01T12:35:38;3.50;;;3.22;;
22254;SDS011;11296;42.684;23.322;2022-08-01T12:38:17;2.83;;;2.63;;
22254;SDS011;11296;42.684;23.322;2022-08-01T12:40:53;3.53;;;3.22;;
22254;SDS011;11296;42.684;23.322;2022-08-01T12:43:21;3.42;;;3.20;;
22254;SDS011;11296;42.684;23.322;2022-08-01T12:45:57;3.75;;;3.40;;
22254;SDS011;11296;42.684;23.322;2022-08-01T12:48:47;5.75;;;3.40;;
22254;SDS011;11296;42.684;23.322;2022-08-01T12:51:20;4.10;;;3.20;;
22254;SDS011;11296;42.684;23.322;2022-08-01T12:56:54;4.63;;;3.38;;
22254;SDS011;11296;42.684;23.322;2022-08-01T12:59:24;3.65;;;3.28;;
22254;SDS011;11296;42.684;23.322;2022-08-01T13:02:07;3.63;;;3.33;;
22254;SDS011;11296;42.684;23.322;2022-08-01T13:04:34;3.63;;;3.33;;
22254;SDS011;11296;42.684;23.322;2022-08-01T13:07:16;4.43;;;3.50;;
22254;SDS011;11296;42.684;23.322;2022-08-01T13:09:57;3.78;;;3.58;;
22254;SDS011;11296;42.684;23.322;2022-08-01T13:12:26;3.95;;;3.65;;
22254;SDS011;11296;42.684;23.322;2022-08-01T13:17:59;3.80;;;3.45;;
22254;SDS011;11296;42.684;23.322;2022-08-01T13:20:29;4.15;;;3.85;;
22254;SDS011;11296;42.684;23.322;2022-08-01T13:23:09;4.43;;;4.03;;
22254;SDS011;11296;42.684;23.322;2022-08-01T13:25:49;4.28;;;4.03;;
22254;SDS011;11296;42.684;23.322;2022-08-01T13:28:24;3.78;;;3.47;;
22254;SDS011;11296;42.684;23.322;2022-08-01T13:31:06;4.03;;;3.67;;
22254;SDS011;11296;42.684;23.322;2022-08-01T13:33:40;3.45;;;3.25;;
22254;SDS011;11296;42.684;23.322;2022-08-01T13:36:22;3.78;;;3.58;;
22254;SDS011;11296;42.684;23.322;2022-08-01T13:39:04;4.10;;;3.80;;
22254;SDS011;11296;42.684;23.322;2022-08-01T13:42:49;4.72;;;4.00;;
22254;SDS011;11296;42.684;23.322;2022-08-01T13:48:35;4.20;;;3.78;;
22254;SDS011;11296;42.684;23.322;2022-08-01T13:51:26;4.90;;;4.45;;
22254;SDS011;11296;42.684;23.322;2022-08-01T13:54:27;3.92;;;3.72;;
22254;SDS011;11296;42.684;23.322;2022-08-01T13:57:06;4.05;;;3.60;;
22254;SDS011;11296;42.684;23.322;2022-08-01T13:59:34;4.30;;;4.00;;
22254;SDS011;11296;42.684;23.322;2022-08-01T14:02:06;5.40;;;4.35;;
22254;SDS011;11296;42.684;23.322;2022-08-01T14:04:41;4.55;;;4.15;;
22254;SDS011;11296;42.684;23.322;2022-08-01T14:07:12;4.00;;;3.80;;
22254;SDS011;11296;42.684;23.322;2022-08-01T14:09:40;4.30;;;3.80;;
22254;SDS011;11296;42.684;23.322;2022-08-01T14:12:12;3.95;;;3.65;;
22254;SDS011;11296;42.684;23.322;2022-08-01T14:14:45;4.10;;;3.80;;
22254;SDS011;11296;42.684;23.322;2022-08-01T14:17:18;4.72;;;3.80;;
22254;SDS011;11296;42.684;23.322;2022-08-01T14:19:52;3.95;;;3.65;;
22254;SDS011;11296;42.684;23.322;2022-08-01T14:22:18;3.97;;;3.60;;
22254;SDS011;11296;42.684;23.322;2022-08-01T14:24:46;5.65;;;3.60;;
22254;SDS011;11296;42.684;23.322;2022-08-01T14:27:14;3.67;;;3.25;;
22254;SDS011;11296;42.684;23.322;2022-08-01T14:29:39;3.55;;;3.35;;
22254;SDS011;11296;42.684;23.322;2022-08-01T14:32:05;4.32;;;3.70;;
22254;SDS011;11296;42.684;23.322;2022-08-01T14:34:31;3.95;;;3.75;;
22254;SDS011;11296;42.684;23.322;2022-08-01T14:36:56;3.97;;;3.60;;
22254;SDS011;11296;42.684;23.322;2022-08-01T14:39:24;3.90;;;3.60;;
22254;SDS011;11296;42.684;23.322;2022-08-01T14:41:50;4.18;;;3.53;;
22254;SDS011;11296;42.684;23.322;2022-08-01T14:44:16;3.90;;;3.60;;
22254;SDS011;11296;42.684;23.322;2022-08-01T14:46:41;3.80;;;3.60;;
22254;SDS011;11296;42.684;23.322;2022-08-01T14:49:09;5.00;;;3.67;;
22254;SDS011;11296;42.684;23.322;2022-08-01T14:51:35;3.47;;;3.28;;
22254;SDS011;11296;42.684;23.322;2022-08-01T14:54:03;4.68;;;3.60;;
22254;SDS011;11296;42.684;23.322;2022-08-01T14:56:30;3.67;;;3.33;;
22254;SDS011;11296;42.684;23.322;2022-08-01T14:58:56;3.47;;;3.28;;
22254;SDS011;11296;42.684;23.322;2022-08-01T15:01:21;3.30;;;2.83;;
22254;SDS011;11296;42.684;23.322;2022-08-01T15:03:47;3.20;;;2.90;;
22254;SDS011;11296;42.684;23.322;2022-08-01T15:06:24;4.90;;;3.00;;
22254;SDS011;11296;42.684;23.322;2022-08-01T15:08:50;3.08;;;2.70;;
22254;SDS011;11296;42.684;23.322;2022-08-01T15:11:16;2.53;;;2.33;;
22254;SDS011;11296;42.684;23.322;2022-08-01T15:13:42;2.97;;;2.47;;
22254;SDS011;11296;42.684;23.322;2022-08-01T15:16:08;3.08;;;2.88;;
22254;SDS011;11296;42.684;23.322;2022-08-01T15:18:34;3.00;;;2.80;;
22254;SDS011;11296;42.684;23.322;2022-08-01T15:21:03;3.85;;;3.45;;
22254;SDS011;11296;42.684;23.322;2022-08-01T15:23:30;3.20;;;3.00;;
22254;SDS011;11296;42.684;23.322;2022-08-01T15:25:56;3.47;;;3.28;;
22254;SDS011;11296;42.684;23.322;2022-08-01T15:28:21;3.25;;;3.00;;
22254;SDS011;11296;42.684;23.322;2022-08-01T15:30:49;3.47;;;3.17;;
22254;SDS011;11296;42.684;23.322;2022-08-01T15:33:18;3.55;;;3.10;;
22254;SDS011;11296;42.684;23.322;2022-08-01T15:36:04;4.15;;;3.58;;
22254;SDS011;11296;42.684;23.322;2022-08-01T15:38:32;7.20;;;4.78;;
22254;SDS011;11296;42.684;23.322;2022-08-01T15:40:58;2.58;;;2.38;;
22254;SDS011;11296;42.684;23.322;2022-08-01T15:43:24;3.13;;;2.75;;
22254;SDS011;11296;42.684;23.322;2022-08-01T15:45:52;3.30;;;2.50;;
22254;SDS011;11296;42.684;23.322;2022-08-01T15:48:48;2.45;;;2.25;;
22254;SDS011;11296;42.684;23.322;2022-08-01T15:51:58;2.38;;;2.17;;
22254;SDS011;11296;42.684;23.322;2022-08-01T15:54:24;3.17;;;2.53;;